createdAt,value
2018-10-03T00:00:58.264Z,90.10
2018-10-03T00:03:29.787Z,90.26
2018-10-03T00:05:59.158Z,90.47
2018-10-03T00:08:28.502Z,89.10
2018-10-03T00:10:57.954Z,88.72
2018-10-03T00:13:28.745Z,88.21
2018-10-03T00:15:58.113Z,88.97
2018-10-03T00:18:27.985Z,89.30
2018-10-03T00:20:57.350Z,90.47
2018-10-03T00:23:27.901Z,90.94
2018-10-03T00:25:57.459Z,90.87
2018-10-03T00:28:27.008Z,91.37
2018-10-03T00:30:56.407Z,91.21
2018-10-03T00:33:25.874Z,91.29
2018-10-03T00:35:57.582Z,91.95
2018-10-03T00:38:27.690Z,92.23
2018-10-03T00:40:57.707Z,92.07
2018-10-03T00:43:27.208Z,92.04
2018-10-03T00:46:00.177Z,91.48
2018-10-03T00:48:30.167Z,91.29
2018-10-03T00:51:00.454Z,93.05
2018-10-03T00:53:29.874Z,94.12
2018-10-03T00:56:01.287Z,95.53
2018-10-03T00:58:31.412Z,96.43
2018-10-03T01:04:09.510Z,98.28
2018-10-03T01:06:39.230Z,98.51
2018-10-03T01:09:08.729Z,98.56
2018-10-03T01:11:39.481Z,98.02
2018-10-03T01:14:09.097Z,97.21
2018-10-03T01:16:39.008Z,97.67
2018-10-03T01:19:09.116Z,96.84
2018-10-03T01:21:38.526Z,98.06
2018-10-03T01:24:08.577Z,95.74
2018-10-03T01:26:41.969Z,96.60
2018-10-03T01:29:11.753Z,96.91
2018-10-03T01:31:41.333Z,95.89
2018-10-03T01:34:12.791Z,95.93
2018-10-03T01:36:42.275Z,96.54
2018-10-03T01:39:11.830Z,96.12
2018-10-03T01:41:42.240Z,95.82
2018-10-03T01:44:11.963Z,93.20
2018-10-03T01:46:41.555Z,94.50
2018-10-03T01:49:11.831Z,91.09
2018-10-03T01:51:46.877Z,91.10
2018-10-03T01:54:17.223Z,90.01
2018-10-03T01:56:46.674Z,87.74
2018-10-03T01:59:16.632Z,88.33
2018-10-03T02:01:46.694Z,86.40
2018-10-03T02:04:19.630Z,85.81
2018-10-03T02:06:48.981Z,84.34
2018-10-03T02:09:18.368Z,84.51
2018-10-03T02:11:48.285Z,83.67
2018-10-03T02:14:19.016Z,86.42
2018-10-03T02:16:49.886Z,88.25
2018-10-03T02:19:21.449Z,88.97
2018-10-03T02:21:50.889Z,91.42
2018-10-03T02:24:20.590Z,93.11
2018-10-03T02:26:49.990Z,93.18
2018-10-03T02:29:20.045Z,93.72
2018-10-03T02:31:49.481Z,94.25
2018-10-03T02:34:24.175Z,94.76
2018-10-03T02:36:53.747Z,94.18
2018-10-03T02:39:46.621Z,94.79
2018-10-03T02:42:16.206Z,94.97
2018-10-03T02:44:45.675Z,94.08
2018-10-03T02:47:15.620Z,94.53
2018-10-03T02:49:45.386Z,94.11
2018-10-03T02:52:17.149Z,92.59
2018-10-03T02:54:46.506Z,92.61
2018-10-03T02:57:15.913Z,92.85
2018-10-03T02:59:45.377Z,92.59
2018-10-03T03:02:14.795Z,94.23
2018-10-03T03:04:44.212Z,94.88
2018-10-03T03:07:14.197Z,94.71
2018-10-03T03:09:43.653Z,95.74
2018-10-03T03:12:13.108Z,95.65
2018-10-03T03:14:42.549Z,96.50
2018-10-03T03:17:12.014Z,96.76
2018-10-03T03:19:41.463Z,97.12
2018-10-03T03:22:10.917Z,96.81
2018-10-03T03:24:40.402Z,96.03
2018-10-03T03:27:09.821Z,96.81
2018-10-03T03:29:39.254Z,96.60
2018-10-03T03:32:08.633Z,96.17
2018-10-03T03:34:37.977Z,95.95
2018-10-03T03:37:08.665Z,96.11
2018-10-03T03:39:38.086Z,95.80
2018-10-03T03:42:08.034Z,94.64
2018-10-03T03:44:37.423Z,95.35
2018-10-03T03:47:07.031Z,95.52
2018-10-03T03:49:36.434Z,94.98
2018-10-03T03:52:06.167Z,94.32
2018-10-03T03:54:35.698Z,95.25
2018-10-03T03:57:05.086Z,95.98
2018-10-03T03:59:34.467Z,96.23
2018-10-03T04:02:04.014Z,96.60
2018-10-03T04:04:33.443Z,97.23
2018-10-03T04:07:02.830Z,97.14
2018-10-03T04:09:32.878Z,96.62
2018-10-03T04:12:02.314Z,96.81
2018-10-03T04:14:32.048Z,97.11
2018-10-03T04:17:01.531Z,97.47
2018-10-03T04:19:30.886Z,98.00
2018-10-03T04:22:02.060Z,98.65
2018-10-03T04:24:31.485Z,99.19
2018-10-03T04:27:01.520Z,100.00
2018-10-03T04:29:30.849Z,100.00
2018-10-03T04:32:01.096Z,100.00
2018-10-03T04:34:30.806Z,100.00
2018-10-03T04:37:00.250Z,100.00
2018-10-03T04:39:30.227Z,100.00
2018-10-03T04:41:59.574Z,100.00
2018-10-03T04:44:28.960Z,100.00
2018-10-03T04:46:58.757Z,100.00
2018-10-03T04:49:28.193Z,100.00
2018-10-03T04:51:57.574Z,100.00
2018-10-03T04:54:27.111Z,100.00
2018-10-03T04:56:56.522Z,100.00
2018-10-03T04:59:25.995Z,100.00
2018-10-03T05:01:59.889Z,100.00
2018-10-03T05:04:29.369Z,100.00
2018-10-03T05:06:58.894Z,100.00
2018-10-03T05:09:28.336Z,100.00
2018-10-03T05:11:57.811Z,99.97
2018-10-03T05:14:28.423Z,99.86
2018-10-03T05:16:58.768Z,99.48
2018-10-03T05:19:28.178Z,99.72
2018-10-03T05:21:57.718Z,99.48
2018-10-03T05:24:27.063Z,99.89
2018-10-03T05:26:56.814Z,100.00
2018-10-03T05:29:26.185Z,100.00
2018-10-03T05:31:55.554Z,100.00
2018-10-03T05:34:24.985Z,100.00
2018-10-03T05:36:54.370Z,100.00
2018-10-03T05:39:23.860Z,100.00
2018-10-03T05:41:53.356Z,100.00
2018-10-03T05:44:22.743Z,100.00
2018-10-03T05:46:52.142Z,100.00
2018-10-03T05:49:21.490Z,100.00
2018-10-03T05:51:50.845Z,99.80
2018-10-03T05:54:20.335Z,99.50
2018-10-03T05:56:49.699Z,99.59
2018-10-03T05:59:19.227Z,99.58
2018-10-03T06:01:50.414Z,100.00
2018-10-03T06:04:21.311Z,100.00
2018-10-03T06:06:54.336Z,100.00
2018-10-03T06:09:24.504Z,100.00
2018-10-03T06:11:53.950Z,100.00
2018-10-03T06:14:23.378Z,100.00
2018-10-03T06:16:54.101Z,100.00
2018-10-03T06:19:24.554Z,100.00
2018-10-03T06:21:55.418Z,100.00
2018-10-03T06:24:24.861Z,100.00
2018-10-03T06:26:54.276Z,99.80
2018-10-03T06:29:24.465Z,99.70
2018-10-03T06:31:54.946Z,99.63
2018-10-03T06:34:25.218Z,99.78
2018-10-03T06:36:54.773Z,99.50
2018-10-03T06:39:24.336Z,99.27
2018-10-03T06:41:54.008Z,99.64
2018-10-03T06:44:23.378Z,99.45
2018-10-03T06:46:52.896Z,99.55
2018-10-03T06:49:23.451Z,98.65
2018-10-03T06:51:54.422Z,98.95
2018-10-03T06:54:24.266Z,98.16
2018-10-03T06:56:54.292Z,98.28
2018-10-03T06:59:24.531Z,96.60
2018-10-03T07:01:53.996Z,97.57
2018-10-03T07:04:23.481Z,97.66
2018-10-03T07:06:54.386Z,96.77
2018-10-03T07:09:23.813Z,95.06
2018-10-03T07:11:53.285Z,93.43
2018-10-03T07:14:22.645Z,93.99
2018-10-03T07:16:52.102Z,93.02
2018-10-03T07:19:21.901Z,92.16
2018-10-03T07:21:51.385Z,92.23
2018-10-03T07:24:21.114Z,90.68
2018-10-03T07:26:52.510Z,91.33
2018-10-03T07:29:21.879Z,90.34
2018-10-03T07:31:53.825Z,90.25
2018-10-03T07:34:23.290Z,89.28
2018-10-03T07:36:52.770Z,88.84
2018-10-03T07:39:22.122Z,87.91
2018-10-03T07:41:52.538Z,87.49
2018-10-03T07:44:22.326Z,86.01
2018-10-03T07:46:51.807Z,86.27
2018-10-03T07:49:21.997Z,85.21
2018-10-03T07:51:51.441Z,83.29
2018-10-03T07:54:20.821Z,84.05
2018-10-03T07:56:51.113Z,82.65
2018-10-03T07:59:23.861Z,82.25
2018-10-03T08:01:53.217Z,80.67
2018-10-03T08:04:25.626Z,79.90
2018-10-03T08:06:56.038Z,79.53
2018-10-03T08:09:25.490Z,79.57
2018-10-03T08:11:56.096Z,79.26
2018-10-03T08:14:26.222Z,80.35
2018-10-03T08:16:55.735Z,79.62
2018-10-03T08:19:25.923Z,77.68
2018-10-03T08:21:55.993Z,77.74
2018-10-03T08:24:25.918Z,77.41
2018-10-03T08:26:55.370Z,77.14
2018-10-03T08:29:25.167Z,75.79
2018-10-03T08:31:54.593Z,77.15
2018-10-03T08:34:24.014Z,74.98
2018-10-03T08:36:54.446Z,74.75
2018-10-03T08:39:23.842Z,73.81
2018-10-03T08:41:53.212Z,73.16
2018-10-03T08:44:22.658Z,72.57
2018-10-03T08:46:52.154Z,71.85
2018-10-03T08:49:22.483Z,70.88
2018-10-03T08:51:51.933Z,71.50
2018-10-03T08:54:21.558Z,72.17
2018-10-03T08:56:51.026Z,71.59
2018-10-03T08:59:20.388Z,70.63
2018-10-03T09:01:50.272Z,71.60
2018-10-03T09:05:48.705Z,70.79
2018-10-03T09:08:20.091Z,71.16
2018-10-03T09:10:49.938Z,70.28
2018-10-03T09:13:20.465Z,70.04
2018-10-03T09:15:49.882Z,68.90
2018-10-03T09:18:19.418Z,70.03
2018-10-03T09:20:48.924Z,71.43
2018-10-03T09:23:19.163Z,71.97
2018-10-03T09:25:49.474Z,74.79
2018-10-03T09:28:19.891Z,76.65
2018-10-03T09:30:49.251Z,77.79
2018-10-03T09:33:19.510Z,76.44
2018-10-03T09:35:49.655Z,75.79
2018-10-03T09:38:20.123Z,74.00
2018-10-03T09:40:49.590Z,72.33
2018-10-03T09:43:20.174Z,71.17
2018-10-03T09:45:49.929Z,69.99
2018-10-03T09:48:19.285Z,70.52
2018-10-03T09:50:48.859Z,70.60
2018-10-03T09:53:19.230Z,69.62
2018-10-03T09:55:48.803Z,66.81
2018-10-03T09:58:18.154Z,66.73
2018-10-03T10:00:53.041Z,66.54
2018-10-03T10:03:22.437Z,65.91
2018-10-03T10:05:51.830Z,64.31
2018-10-03T10:08:22.646Z,64.25
2018-10-03T10:10:53.287Z,64.72
2018-10-03T10:13:23.040Z,65.21
2018-10-03T10:15:53.082Z,62.85
2018-10-03T10:18:22.777Z,62.01
2018-10-03T10:20:52.284Z,63.35
2018-10-03T10:23:21.782Z,61.82
2018-10-03T10:27:05.332Z,62.39
2018-10-03T10:29:36.190Z,61.22
2018-10-03T10:32:05.874Z,61.86
2018-10-03T10:34:35.317Z,62.02
2018-10-03T10:37:05.754Z,60.60
2018-10-03T10:39:35.642Z,59.56
2018-10-03T10:42:06.017Z,58.02
2018-10-03T10:44:35.498Z,58.65
2018-10-03T10:47:05.176Z,60.17
2018-10-03T10:49:53.105Z,61.12
2018-10-03T10:52:23.001Z,65.61
2018-10-03T10:54:53.838Z,67.47
2018-10-03T10:57:23.578Z,68.08
2018-10-03T10:59:53.006Z,68.29
2018-10-03T11:02:22.946Z,67.13
2018-10-03T11:04:54.145Z,67.72
2018-10-03T11:07:23.726Z,67.43
2018-10-03T11:09:53.190Z,67.36
2018-10-03T11:12:26.905Z,66.20
2018-10-03T11:14:57.575Z,65.96
2018-10-03T11:17:29.053Z,63.58
2018-10-03T11:19:58.488Z,62.77
2018-10-03T11:22:29.765Z,61.94
2018-10-03T11:24:59.599Z,62.53
2018-10-03T11:27:29.408Z,61.71
2018-10-03T11:29:58.787Z,61.99
2018-10-03T11:32:30.389Z,61.94
2018-10-03T11:34:59.839Z,63.70
2018-10-03T11:38:29.498Z,64.83
2018-10-03T11:40:59.062Z,65.35
2018-10-03T11:43:28.660Z,64.39
2018-10-03T11:46:00.656Z,64.79
2018-10-03T11:48:30.109Z,63.32
2018-10-03T11:50:59.547Z,61.69
2018-10-03T11:53:29.584Z,61.94
2018-10-03T11:55:59.075Z,60.57
2018-10-03T11:58:29.418Z,61.44
2018-10-03T12:00:58.900Z,61.13
2018-10-03T12:03:29.375Z,60.90
2018-10-03T12:05:59.639Z,60.29
2018-10-03T12:08:30.279Z,59.77
2018-10-03T12:10:59.664Z,60.15
2018-10-03T12:13:29.098Z,61.14
2018-10-03T12:15:59.644Z,61.18
2018-10-03T12:18:29.232Z,61.78
2018-10-03T12:20:59.481Z,61.65
2018-10-03T12:23:29.434Z,62.35
2018-10-03T12:26:05.976Z,63.76
2018-10-03T12:28:35.789Z,64.05
2018-10-03T12:31:05.335Z,61.28
2018-10-03T12:33:36.332Z,60.12
2018-10-03T12:36:06.162Z,61.27
2018-10-03T12:38:36.951Z,60.65
2018-10-03T12:41:06.734Z,59.01
2018-10-03T12:43:36.706Z,55.85
2018-10-03T12:46:06.214Z,50.57
2018-10-03T12:48:35.836Z,51.39
2018-10-03T12:51:07.627Z,50.76
2018-10-03T12:53:37.561Z,49.48
2018-10-03T12:56:07.169Z,51.27
2018-10-03T12:58:36.631Z,51.95
2018-10-03T13:01:07.055Z,51.82
2018-10-03T13:03:36.580Z,51.88
2018-10-03T13:06:06.106Z,50.48
2018-10-03T13:08:35.671Z,51.99
2018-10-03T13:11:06.066Z,54.68
2018-10-03T13:16:32.871Z,60.36
2018-10-03T13:19:03.139Z,60.87
2018-10-03T13:21:33.100Z,59.28
2018-10-03T13:24:05.938Z,57.27
2018-10-03T13:26:36.807Z,54.21
2018-10-03T13:29:06.575Z,54.10
2018-10-03T13:31:37.130Z,53.75
2018-10-03T13:34:07.592Z,50.72
2018-10-03T13:36:37.100Z,52.22
2018-10-03T13:39:11.197Z,52.19
2018-10-03T13:41:40.631Z,51.69
2018-10-03T13:44:10.089Z,53.41
2018-10-03T13:46:40.511Z,51.15
2018-10-03T13:49:11.559Z,54.21
2018-10-03T13:51:41.668Z,53.52
2018-10-03T13:54:11.067Z,54.11
2018-10-03T13:56:41.379Z,54.90
2018-10-03T13:59:10.802Z,56.40
2018-10-03T14:01:41.579Z,56.49
2018-10-03T14:04:11.283Z,55.78
2018-10-03T14:06:40.782Z,51.46
2018-10-03T14:09:11.258Z,50.92
2018-10-03T14:11:41.532Z,50.01
2018-10-03T14:14:11.778Z,49.91
2018-10-03T14:16:41.370Z,49.67
2018-10-03T14:19:11.220Z,49.76
2018-10-03T14:21:40.625Z,49.49
2018-10-03T14:24:15.479Z,51.04
2018-10-03T14:26:44.934Z,51.02
2018-10-03T14:29:14.731Z,52.14
2018-10-03T14:31:45.121Z,51.10
2018-10-03T14:34:14.572Z,49.84
2018-10-03T14:36:45.018Z,50.36
2018-10-03T14:39:15.108Z,53.51
2018-10-03T14:41:45.655Z,54.04
2018-10-03T14:44:15.285Z,55.56
2018-10-03T14:46:45.173Z,57.01
2018-10-03T14:49:19.795Z,56.90
2018-10-03T14:51:49.727Z,56.96
2018-10-03T14:54:23.637Z,57.38
2018-10-03T14:56:53.183Z,56.41
2018-10-03T14:59:23.546Z,57.30
2018-10-03T15:01:53.531Z,56.91
2018-10-03T15:04:23.389Z,56.36
2018-10-03T15:06:53.121Z,55.86
2018-10-03T15:09:22.654Z,55.50
2018-10-03T15:14:51.238Z,56.49
2018-10-03T15:17:24.115Z,57.39
2018-10-03T15:19:53.820Z,56.74
2018-10-03T15:22:24.686Z,57.05
2018-10-03T15:24:54.633Z,56.84
2018-10-03T15:27:24.609Z,57.51
2018-10-03T15:29:54.269Z,57.78
2018-10-03T15:32:24.987Z,58.56
2018-10-03T15:34:55.313Z,60.05
2018-10-03T15:37:27.622Z,60.23
2018-10-03T15:39:57.223Z,61.64
2018-10-03T15:42:26.774Z,62.00
2018-10-03T15:44:57.686Z,63.13
2018-10-03T15:47:27.239Z,63.16
2018-10-03T15:49:56.715Z,63.45
2018-10-03T15:52:28.465Z,63.99
2018-10-03T15:54:58.386Z,64.56
2018-10-03T15:57:28.098Z,65.16
2018-10-03T16:02:55.138Z,66.59
2018-10-03T16:05:26.898Z,66.65
2018-10-03T16:07:56.439Z,67.47
2018-10-03T16:10:25.926Z,68.70
2018-10-03T16:12:55.614Z,69.44
2018-10-03T16:15:25.142Z,69.80
2018-10-03T16:17:55.773Z,70.63
2018-10-03T16:20:25.175Z,71.74
2018-10-03T16:22:55.141Z,71.42
2018-10-03T16:25:26.282Z,69.81
2018-10-03T16:27:56.338Z,70.36
2018-10-03T16:30:25.806Z,69.68
2018-10-03T16:32:55.183Z,67.57
2018-10-03T16:35:24.699Z,68.18
2018-10-03T16:37:54.824Z,68.06
2018-10-03T16:40:25.736Z,68.13
2018-10-03T16:42:57.186Z,68.54
2018-10-03T16:45:26.817Z,68.89
2018-10-03T16:47:56.294Z,69.38
2018-10-03T16:50:26.721Z,69.33
2018-10-03T16:52:56.347Z,69.83
2018-10-03T16:55:27.086Z,69.81
2018-10-03T16:57:56.787Z,69.99
2018-10-03T17:00:26.214Z,70.28
2018-10-03T17:02:55.881Z,70.75
2018-10-03T17:05:25.323Z,71.40
2018-10-03T17:07:54.792Z,71.92
2018-10-03T17:10:24.435Z,72.42
2018-10-03T17:12:55.557Z,72.16
2018-10-03T17:15:25.028Z,72.41
2018-10-03T17:17:54.791Z,72.77
2018-10-03T17:20:24.214Z,72.91
2018-10-03T17:22:53.721Z,73.42
2018-10-03T17:25:23.205Z,73.16
2018-10-03T17:27:53.725Z,73.51
2018-10-03T17:30:23.183Z,73.70
2018-10-03T17:32:52.591Z,73.79
2018-10-03T17:35:22.574Z,73.68
2018-10-03T17:37:57.186Z,74.17
2018-10-03T17:40:26.593Z,74.46
2018-10-03T17:42:56.306Z,74.25
2018-10-03T17:45:25.677Z,74.67
2018-10-03T17:47:55.147Z,74.52
2018-10-03T17:50:24.606Z,73.97
2018-10-03T17:52:54.504Z,73.69
2018-10-03T17:55:24.889Z,74.49
2018-10-03T17:57:55.403Z,75.01
2018-10-03T18:00:25.546Z,73.87
2018-10-03T18:02:54.923Z,75.00
2018-10-03T18:05:24.318Z,75.34
2018-10-03T18:11:04.278Z,74.87
2018-10-03T18:13:33.813Z,75.35
2018-10-03T18:16:03.109Z,76.10
2018-10-03T18:18:32.642Z,76.34
2018-10-03T18:21:02.002Z,76.66
2018-10-03T18:23:31.416Z,76.97
2018-10-03T18:26:01.161Z,77.12
2018-10-03T18:28:30.702Z,76.90
2018-10-03T18:31:00.193Z,77.48
2018-10-03T18:33:29.707Z,78.10
2018-10-03T18:35:59.124Z,78.66
2018-10-03T18:38:29.157Z,79.11
2018-10-03T18:40:58.614Z,78.98
2018-10-03T18:43:28.017Z,79.14
2018-10-03T18:45:57.415Z,79.15
2018-10-03T18:48:27.401Z,79.63
2018-10-03T18:50:57.054Z,79.41
2018-10-03T18:53:26.418Z,78.86
2018-10-03T18:55:56.834Z,79.02
2018-10-03T18:58:26.281Z,79.44
2018-10-03T19:00:55.805Z,79.85
2018-10-03T19:03:25.295Z,79.97
2018-10-03T19:05:54.867Z,79.61
2018-10-03T19:08:24.314Z,79.81
2018-10-03T19:10:53.693Z,79.92
2018-10-03T19:13:24.006Z,80.20
2018-10-03T19:15:53.482Z,80.13
2018-10-03T19:18:22.913Z,81.12
2018-10-03T19:20:52.417Z,81.59
2018-10-03T19:23:21.917Z,81.55
2018-10-03T19:25:51.328Z,81.85
2018-10-03T19:28:20.910Z,81.96
2018-10-03T19:30:50.390Z,82.03
2018-10-03T19:33:20.341Z,81.98
2018-10-03T19:35:49.999Z,82.42
2018-10-03T19:38:19.284Z,82.60
2018-10-03T19:40:49.748Z,82.53
2018-10-03T19:43:19.239Z,83.20
2018-10-03T19:45:48.684Z,83.45
2018-10-03T19:48:18.251Z,83.64
2018-10-03T19:50:48.138Z,83.41
2018-10-03T19:53:21.650Z,83.84
2018-10-03T19:55:51.048Z,84.27
2018-10-03T19:58:20.464Z,84.33
2018-10-03T20:00:49.955Z,84.82
2018-10-03T20:03:19.458Z,84.97
2018-10-03T20:05:48.967Z,84.95
2018-10-03T20:08:18.666Z,85.24
2018-10-03T20:10:48.430Z,86.10
2018-10-03T20:13:17.842Z,85.92
2018-10-03T20:15:47.369Z,85.84
2018-10-03T20:18:16.777Z,86.27
2018-10-03T20:20:46.844Z,85.90
2018-10-03T20:23:16.218Z,86.43
2018-10-03T20:25:45.636Z,87.13
2018-10-03T20:28:15.840Z,87.36
2018-10-03T20:30:45.542Z,87.27
2018-10-03T20:33:15.111Z,87.32
2018-10-03T20:35:44.610Z,87.57
2018-10-03T20:38:14.006Z,87.65
2018-10-03T20:40:44.322Z,87.30
2018-10-03T20:43:13.854Z,87.63
2018-10-03T20:45:43.206Z,87.52
2018-10-03T20:48:12.690Z,87.87
2018-10-03T20:50:42.047Z,88.27
2018-10-03T20:53:11.682Z,88.32
2018-10-03T20:55:41.027Z,88.17
2018-10-03T20:58:10.385Z,88.82
2018-10-03T21:00:39.790Z,89.35
2018-10-03T21:03:09.249Z,89.06
2018-10-03T21:05:38.642Z,89.19
2018-10-03T21:08:08.080Z,89.38
2018-10-03T21:10:37.724Z,89.80
2018-10-03T21:13:07.218Z,89.60
2018-10-03T21:15:36.661Z,89.20
2018-10-03T21:18:06.093Z,89.20
2018-10-03T21:20:35.523Z,89.74
2018-10-03T21:23:04.879Z,88.96
2018-10-03T21:25:34.331Z,89.97
2018-10-03T21:28:03.817Z,89.86
2018-10-03T21:30:33.261Z,90.04
2018-10-03T21:33:02.726Z,90.83
2018-10-03T21:35:32.222Z,91.54
2018-10-03T21:38:01.749Z,92.13
2018-10-03T21:40:31.118Z,92.33
2018-10-03T21:43:00.555Z,92.34
2018-10-03T21:45:29.939Z,92.59
2018-10-03T21:47:59.373Z,91.37
2018-10-03T21:50:28.775Z,90.62
2018-10-03T21:52:58.184Z,90.41
2018-10-03T21:55:27.757Z,90.27
2018-10-03T21:57:57.206Z,90.59
2018-10-03T22:00:31.682Z,90.14
2018-10-03T22:03:01.164Z,90.96
2018-10-03T22:05:30.590Z,91.05
2018-10-03T22:07:59.986Z,90.93
2018-10-03T22:10:29.438Z,92.43
2018-10-03T22:12:58.826Z,92.62
2018-10-03T22:15:28.242Z,92.51
2018-10-03T22:17:57.722Z,92.31
2018-10-03T22:20:27.167Z,92.79
2018-10-03T22:22:56.566Z,93.30
2018-10-03T22:25:25.923Z,93.25
2018-10-03T22:27:55.403Z,93.29
2018-10-03T22:30:24.818Z,93.64
2018-10-03T22:32:54.337Z,94.42
2018-10-03T22:35:23.743Z,93.99
2018-10-03T22:37:53.538Z,94.68
2018-10-03T22:40:23.009Z,94.19
2018-10-03T22:42:52.369Z,94.53
2018-10-03T22:45:21.858Z,94.94
2018-10-03T22:47:51.397Z,94.49
2018-10-03T22:50:20.838Z,95.73
2018-10-03T22:52:50.177Z,95.11
2018-10-03T22:55:19.648Z,95.55
2018-10-03T22:57:49.081Z,95.67
2018-10-03T23:00:18.482Z,95.91
2018-10-03T23:02:47.937Z,96.24
2018-10-03T23:05:17.296Z,95.77
2018-10-03T23:07:46.792Z,96.86
2018-10-03T23:10:16.236Z,96.47
2018-10-03T23:12:45.686Z,96.87
2018-10-03T23:15:15.086Z,97.19
2018-10-03T23:17:44.412Z,97.06
2018-10-03T23:20:13.870Z,97.06
2018-10-03T23:22:43.307Z,97.50
2018-10-03T23:25:12.785Z,98.00
2018-10-03T23:27:42.167Z,97.94
2018-10-03T23:30:11.563Z,98.16
2018-10-03T23:32:41.077Z,97.57
2018-10-03T23:35:10.514Z,98.04
2018-10-03T23:37:39.999Z,97.85
2018-10-03T23:40:09.326Z,97.36
2018-10-03T23:42:38.850Z,97.38
2018-10-03T23:45:08.297Z,97.44
2018-10-03T23:47:37.798Z,96.12
2018-10-03T23:50:07.222Z,96.35
2018-10-03T23:52:36.615Z,96.41
2018-10-03T23:55:06.130Z,96.16
2018-10-03T23:57:35.502Z,96.21
